sensor_id;sensor_type;location;lat;lon;timestamp;P1;durP1;ratioP1;P2;durP2;ratioP2
69588;SDS011;56792;50.644;17.984;2023-02-28T00:00:51;17.70;;;8.50;;
69588;SDS011;56792;50.644;17.984;2023-02-28T00:03:23;17.50;;;9.10;;
69588;SDS011;56792;50.644;17.984;2023-02-28T00:05:55;19.60;;;9.80;;
69588;SDS011;56792;50.644;17.984;2023-02-28T00:08:27;18.80;;;9.00;;
69588;SDS011;56792;50.644;17.984;2023-02-28T00:11:03;19.70;;;9.30;;
69588;SDS011;56792;50.644;17.984;2023-02-28T00:13:40;13.20;;;7.60;;
69588;SDS011;56792;50.644;17.984;2023-02-28T00:16:17;16.20;;;7.90;;
69588;SDS011;56792;50.644;17.984;2023-02-28T00:18:51;16.20;;;7.90;;
69588;SDS011;56792;50.644;17.984;2023-02-28T00:21:23;15.90;;;8.70;;
69588;SDS011;56792;50.644;17.984;2023-02-28T00:23:56;16.90;;;9.00;;
69588;SDS011;56792;50.644;17.984;2023-02-28T00:26:28;20.50;;;9.20;;
69588;SDS011;56792;50.644;17.984;2023-02-28T00:29:01;19.60;;;10.80;;
69588;SDS011;56792;50.644;17.984;2023-02-28T00:31:33;24.50;;;12.10;;
69588;SDS011;56792;50.644;17.984;2023-02-28T00:34:06;25.30;;;12.50;;
69588;SDS011;56792;50.644;17.984;2023-02-28T00:36:38;22.30;;;11.60;;
69588;SDS011;56792;50.644;17.984;2023-02-28T00:39:14;21.20;;;10.40;;
69588;SDS011;56792;50.644;17.984;2023-02-28T00:41:46;21.30;;;10.60;;
69588;SDS011;56792;50.644;17.984;2023-02-28T00:44:19;14.50;;;8.10;;
69588;SDS011;56792;50.644;17.984;2023-02-28T00:46:51;18.80;;;8.70;;
69588;SDS011;56792;50.644;17.984;2023-02-28T00:49:27;18.10;;;9.80;;
69588;SDS011;56792;50.644;17.984;2023-02-28T00:51:59;19.90;;;9.40;;
69588;SDS011;56792;50.644;17.984;2023-02-28T00:54:32;19.70;;;10.30;;
69588;SDS011;56792;50.644;17.984;2023-02-28T00:57:04;18.80;;;10.30;;
69588;SDS011;56792;50.644;17.984;2023-02-28T00:59:36;15.80;;;7.60;;
69588;SDS011;56792;50.644;17.984;2023-02-28T01:02:09;15.30;;;7.90;;
69588;SDS011;56792;50.644;17.984;2023-02-28T01:04:41;13.00;;;7.60;;
69588;SDS011;56792;50.644;17.984;2023-02-28T01:07:13;16.40;;;7.90;;
69588;SDS011;56792;50.644;17.984;2023-02-28T01:09:45;14.00;;;6.70;;
69588;SDS011;56792;50.644;17.984;2023-02-28T01:12:17;12.90;;;6.60;;
69588;SDS011;56792;50.644;17.984;2023-02-28T01:14:50;13.70;;;7.70;;
69588;SDS011;56792;50.644;17.984;2023-02-28T01:17:24;13.40;;;6.60;;
69588;SDS011;56792;50.644;17.984;2023-02-28T01:19:57;12.70;;;7.10;;
69588;SDS011;56792;50.644;17.984;2023-02-28T01:22:29;21.20;;;7.60;;
69588;SDS011;56792;50.644;17.984;2023-02-28T01:25:01;11.90;;;6.40;;
69588;SDS011;56792;50.644;17.984;2023-02-28T01:27:34;11.10;;;6.40;;
69588;SDS011;56792;50.644;17.984;2023-02-28T01:30:10;12.20;;;6.60;;
69588;SDS011;56792;50.644;17.984;2023-02-28T01:32:43;11.50;;;6.40;;
69588;SDS011;56792;50.644;17.984;2023-02-28T01:35:15;11.20;;;5.90;;
69588;SDS011;56792;50.644;17.984;2023-02-28T01:37:47;12.10;;;6.60;;
69588;SDS011;56792;50.644;17.984;2023-02-28T01:40:21;10.30;;;6.10;;
69588;SDS011;56792;50.644;17.984;2023-02-28T01:42:53;10.90;;;6.30;;
69588;SDS011;56792;50.644;17.984;2023-02-28T01:45:29;10.40;;;6.70;;
69588;SDS011;56792;50.644;17.984;2023-02-28T01:48:07;12.30;;;6.70;;
69588;SDS011;56792;50.644;17.984;2023-02-28T01:50:43;14.70;;;7.50;;
69588;SDS011;56792;50.644;17.984;2023-02-28T01:53:19;14.10;;;7.20;;
69588;SDS011;56792;50.644;17.984;2023-02-28T01:55:56;14.80;;;7.60;;
69588;SDS011;56792;50.644;17.984;2023-02-28T01:58:29;14.80;;;8.30;;
69588;SDS011;56792;50.644;17.984;2023-02-28T02:01:01;14.40;;;7.60;;
69588;SDS011;56792;50.644;17.984;2023-02-28T02:03:37;18.50;;;8.40;;
69588;SDS011;56792;50.644;17.984;2023-02-28T02:06:09;14.60;;;8.40;;
69588;SDS011;56792;50.644;17.984;2023-02-28T02:08:41;11.40;;;7.10;;
69588;SDS011;56792;50.644;17.984;2023-02-28T02:11:15;14.60;;;7.00;;
69588;SDS011;56792;50.644;17.984;2023-02-28T02:14:03;13.60;;;7.60;;
69588;SDS011;56792;50.644;17.984;2023-02-28T02:17:04;14.60;;;6.70;;
69588;SDS011;56792;50.644;17.984;2023-02-28T02:20:05;15.40;;;7.80;;
69588;SDS011;56792;50.644;17.984;2023-02-28T02:23:23;14.80;;;7.40;;
69588;SDS011;56792;50.644;17.984;2023-02-28T02:26:43;13.60;;;7.90;;
69588;SDS011;56792;50.644;17.984;2023-02-28T02:29:50;13.40;;;6.60;;
69588;SDS011;56792;50.644;17.984;2023-02-28T02:33:13;15.50;;;7.20;;
69588;SDS011;56792;50.644;17.984;2023-02-28T02:36:02;15.20;;;7.20;;
69588;SDS011;56792;50.644;17.984;2023-02-28T02:38:45;15.50;;;7.30;;
69588;SDS011;56792;50.644;17.984;2023-02-28T02:41:27;13.90;;;6.80;;
69588;SDS011;56792;50.644;17.984;2023-02-28T02:44:13;15.60;;;7.10;;
69588;SDS011;56792;50.644;17.984;2023-02-28T02:46:54;15.70;;;6.70;;
69588;SDS011;56792;50.644;17.984;2023-02-28T02:49:35;14.90;;;7.80;;
69588;SDS011;56792;50.644;17.984;2023-02-28T02:52:13;13.90;;;7.20;;
69588;SDS011;56792;50.644;17.984;2023-02-28T02:54:50;13.30;;;6.90;;
69588;SDS011;56792;50.644;17.984;2023-02-28T02:57:29;14.90;;;7.20;;
69588;SDS011;56792;50.644;17.984;2023-02-28T03:00:08;14.30;;;7.10;;
69588;SDS011;56792;50.644;17.984;2023-02-28T03:02:44;13.60;;;7.30;;
69588;SDS011;56792;50.644;17.984;2023-02-28T03:05:21;11.10;;;6.70;;
69588;SDS011;56792;50.644;17.984;2023-02-28T03:07:58;12.20;;;7.30;;
69588;SDS011;56792;50.644;17.984;2023-02-28T03:10:37;12.50;;;7.10;;
69588;SDS011;56792;50.644;17.984;2023-02-28T03:17:02;12.30;;;5.90;;
69588;SDS011;56792;50.644;17.984;2023-02-28T03:19:54;12.30;;;6.30;;
69588;SDS011;56792;50.644;17.984;2023-02-28T03:22:48;14.70;;;7.30;;
69588;SDS011;56792;50.644;17.984;2023-02-28T03:25:32;10.50;;;6.10;;
69588;SDS011;56792;50.644;17.984;2023-02-28T03:28:12;12.80;;;6.60;;
69588;SDS011;56792;50.644;17.984;2023-02-28T03:30:51;11.80;;;6.70;;
69588;SDS011;56792;50.644;17.984;2023-02-28T03:33:30;11.50;;;5.90;;
69588;SDS011;56792;50.644;17.984;2023-02-28T03:36:09;10.50;;;5.60;;
69588;SDS011;56792;50.644;17.984;2023-02-28T03:38:47;11.30;;;6.10;;
69588;SDS011;56792;50.644;17.984;2023-02-28T03:41:23;11.60;;;7.10;;
69588;SDS011;56792;50.644;17.984;2023-02-28T03:44:03;13.40;;;8.90;;
69588;SDS011;56792;50.644;17.984;2023-02-28T03:46:44;17.90;;;9.60;;
69588;SDS011;56792;50.644;17.984;2023-02-28T03:49:22;15.20;;;8.60;;
69588;SDS011;56792;50.644;17.984;2023-02-28T03:52:00;13.60;;;6.90;;
69588;SDS011;56792;50.644;17.984;2023-02-28T03:54:40;13.00;;;6.80;;
69588;SDS011;56792;50.644;17.984;2023-02-28T03:57:22;11.60;;;7.10;;
69588;SDS011;56792;50.644;17.984;2023-02-28T03:59:59;15.80;;;7.50;;
69588;SDS011;56792;50.644;17.984;2023-02-28T04:02:41;17.40;;;8.10;;
69588;SDS011;56792;50.644;17.984;2023-02-28T04:05:13;19.50;;;9.00;;
69588;SDS011;56792;50.644;17.984;2023-02-28T04:07:46;19.40;;;7.90;;
69588;SDS011;56792;50.644;17.984;2023-02-28T04:10:18;20.00;;;7.70;;
69588;SDS011;56792;50.644;17.984;2023-02-28T04:12:52;18.50;;;8.30;;
69588;SDS011;56792;50.644;17.984;2023-02-28T04:15:24;17.20;;;7.80;;
69588;SDS011;56792;50.644;17.984;2023-02-28T04:17:56;13.60;;;6.30;;
69588;SDS011;56792;50.644;17.984;2023-02-28T04:20:28;17.10;;;7.20;;
69588;SDS011;56792;50.644;17.984;2023-02-28T04:23:00;14.70;;;6.90;;
69588;SDS011;56792;50.644;17.984;2023-02-28T04:25:33;12.70;;;5.50;;
69588;SDS011;56792;50.644;17.984;2023-02-28T04:28:05;16.30;;;7.50;;
69588;SDS011;56792;50.644;17.984;2023-02-28T04:30:39;24.90;;;9.40;;
69588;SDS011;56792;50.644;17.984;2023-02-28T04:33:11;30.00;;;10.00;;
69588;SDS011;56792;50.644;17.984;2023-02-28T04:35:43;25.50;;;9.60;;
69588;SDS011;56792;50.644;17.984;2023-02-28T04:38:15;19.80;;;7.60;;
69588;SDS011;56792;50.644;17.984;2023-02-28T04:40:48;17.80;;;7.90;;
69588;SDS011;56792;50.644;17.984;2023-02-28T04:43:20;16.20;;;6.80;;
69588;SDS011;56792;50.644;17.984;2023-02-28T04:45:53;15.80;;;6.40;;
69588;SDS011;56792;50.644;17.984;2023-02-28T04:48:27;17.30;;;7.90;;
69588;SDS011;56792;50.644;17.984;2023-02-28T04:51:04;12.90;;;6.10;;
69588;SDS011;56792;50.644;17.984;2023-02-28T04:53:39;12.50;;;6.00;;
69588;SDS011;56792;50.644;17.984;2023-02-28T04:56:16;11.40;;;5.80;;
69588;SDS011;56792;50.644;17.984;2023-02-28T04:58:49;13.90;;;6.70;;
69588;SDS011;56792;50.644;17.984;2023-02-28T05:01:26;13.00;;;6.90;;
69588;SDS011;56792;50.644;17.984;2023-02-28T05:04:01;10.40;;;5.20;;
69588;SDS011;56792;50.644;17.984;2023-02-28T05:06:34;14.60;;;6.60;;
69588;SDS011;56792;50.644;17.984;2023-02-28T05:09:07;10.70;;;5.10;;
69588;SDS011;56792;50.644;17.984;2023-02-28T05:11:41;11.50;;;6.30;;
69588;SDS011;56792;50.644;17.984;2023-02-28T05:14:15;12.20;;;6.50;;
69588;SDS011;56792;50.644;17.984;2023-02-28T05:16:47;27.20;;;15.30;;
69588;SDS011;56792;50.644;17.984;2023-02-28T05:19:19;42.60;;;16.30;;
69588;SDS011;56792;50.644;17.984;2023-02-28T05:21:54;38.30;;;12.90;;
69588;SDS011;56792;50.644;17.984;2023-02-28T05:24:27;32.50;;;12.60;;
69588;SDS011;56792;50.644;17.984;2023-02-28T05:26:59;34.00;;;13.20;;
69588;SDS011;56792;50.644;17.984;2023-02-28T05:29:32;28.60;;;11.90;;
69588;SDS011;56792;50.644;17.984;2023-02-28T05:32:13;18.20;;;9.80;;
69588;SDS011;56792;50.644;17.984;2023-02-28T05:34:45;14.50;;;7.20;;
69588;SDS011;56792;50.644;17.984;2023-02-28T05:37:18;12.90;;;6.30;;
69588;SDS011;56792;50.644;17.984;2023-02-28T05:39:50;11.70;;;6.50;;
69588;SDS011;56792;50.644;17.984;2023-02-28T05:42:22;11.70;;;5.40;;
69588;SDS011;56792;50.644;17.984;2023-02-28T05:44:54;12.10;;;6.30;;
69588;SDS011;56792;50.644;17.984;2023-02-28T05:47:31;9.80;;;5.70;;
69588;SDS011;56792;50.644;17.984;2023-02-28T05:50:08;12.30;;;6.40;;
69588;SDS011;56792;50.644;17.984;2023-02-28T05:52:41;11.80;;;6.60;;
69588;SDS011;56792;50.644;17.984;2023-02-28T05:55:14;11.30;;;5.90;;
69588;SDS011;56792;50.644;17.984;2023-02-28T05:57:47;10.20;;;6.00;;
69588;SDS011;56792;50.644;17.984;2023-02-28T06:00:20;12.40;;;5.30;;
69588;SDS011;56792;50.644;17.984;2023-02-28T06:02:52;9.60;;;5.50;;
69588;SDS011;56792;50.644;17.984;2023-02-28T06:05:29;10.00;;;5.90;;
69588;SDS011;56792;50.644;17.984;2023-02-28T06:08:01;15.20;;;6.20;;
69588;SDS011;56792;50.644;17.984;2023-02-28T06:10:36;40.70;;;9.40;;
69588;SDS011;56792;50.644;17.984;2023-02-28T06:13:08;43.40;;;12.00;;
69588;SDS011;56792;50.644;17.984;2023-02-28T06:15:41;31.00;;;9.00;;
69588;SDS011;56792;50.644;17.984;2023-02-28T06:18:14;23.30;;;8.20;;
69588;SDS011;56792;50.644;17.984;2023-02-28T06:20:46;21.10;;;7.20;;
69588;SDS011;56792;50.644;17.984;2023-02-28T06:23:24;25.20;;;9.30;;
69588;SDS011;56792;50.644;17.984;2023-02-28T06:25:56;26.70;;;11.40;;
69588;SDS011;56792;50.644;17.984;2023-02-28T06:28:29;29.90;;;10.70;;
69588;SDS011;56792;50.644;17.984;2023-02-28T06:31:04;29.50;;;11.00;;
69588;SDS011;56792;50.644;17.984;2023-02-28T06:33:39;31.50;;;12.70;;
69588;SDS011;56792;50.644;17.984;2023-02-28T06:36:13;17.80;;;8.60;;
69588;SDS011;56792;50.644;17.984;2023-02-28T06:38:46;13.50;;;6.80;;
69588;SDS011;56792;50.644;17.984;2023-02-28T06:41:24;8.70;;;5.70;;
69588;SDS011;56792;50.644;17.984;2023-02-28T06:43:57;10.30;;;5.70;;
69588;SDS011;56792;50.644;17.984;2023-02-28T06:46:29;25.80;;;11.90;;
69588;SDS011;56792;50.644;17.984;2023-02-28T06:49:02;55.00;;;23.00;;
69588;SDS011;56792;50.644;17.984;2023-02-28T06:51:39;43.60;;;18.10;;
69588;SDS011;56792;50.644;17.984;2023-02-28T06:54:14;36.30;;;15.70;;
69588;SDS011;56792;50.644;17.984;2023-02-28T06:56:46;45.60;;;18.10;;
69588;SDS011;56792;50.644;17.984;2023-02-28T06:59:20;42.90;;;17.40;;
69588;SDS011;56792;50.644;17.984;2023-02-28T07:01:52;29.60;;;13.40;;
69588;SDS011;56792;50.644;17.984;2023-02-28T07:04:26;22.30;;;9.70;;
69588;SDS011;56792;50.644;17.984;2023-02-28T07:07:00;22.10;;;9.90;;
69588;SDS011;56792;50.644;17.984;2023-02-28T07:09:32;20.80;;;10.00;;
69588;SDS011;56792;50.644;17.984;2023-02-28T07:12:07;16.40;;;8.50;;
69588;SDS011;56792;50.644;17.984;2023-02-28T07:14:40;17.40;;;8.70;;
69588;SDS011;56792;50.644;17.984;2023-02-28T07:17:12;18.40;;;8.70;;
69588;SDS011;56792;50.644;17.984;2023-02-28T07:19:45;19.90;;;10.20;;
69588;SDS011;56792;50.644;17.984;2023-02-28T07:22:18;18.90;;;10.00;;
69588;SDS011;56792;50.644;17.984;2023-02-28T07:24:50;19.00;;;9.70;;
69588;SDS011;56792;50.644;17.984;2023-02-28T07:27:23;23.50;;;12.10;;
69588;SDS011;56792;50.644;17.984;2023-02-28T07:29:55;17.30;;;7.90;;
69588;SDS011;56792;50.644;17.984;2023-02-28T07:32:31;13.50;;;6.50;;
69588;SDS011;56792;50.644;17.984;2023-02-28T07:35:08;10.50;;;5.00;;
69588;SDS011;56792;50.644;17.984;2023-02-28T07:37:41;9.30;;;4.80;;
69588;SDS011;56792;50.644;17.984;2023-02-28T07:40:16;9.90;;;4.70;;
69588;SDS011;56792;50.644;17.984;2023-02-28T07:42:48;9.10;;;4.90;;
69588;SDS011;56792;50.644;17.984;2023-02-28T07:45:21;8.00;;;4.00;;
69588;SDS011;56792;50.644;17.984;2023-02-28T07:47:53;10.20;;;4.50;;
69588;SDS011;56792;50.644;17.984;2023-02-28T07:50:25;10.80;;;5.20;;
69588;SDS011;56792;50.644;17.984;2023-02-28T07:52:59;12.80;;;7.00;;
69588;SDS011;56792;50.644;17.984;2023-02-28T07:55:31;16.10;;;7.40;;
69588;SDS011;56792;50.644;17.984;2023-02-28T07:58:04;10.70;;;5.10;;
69588;SDS011;56792;50.644;17.984;2023-02-28T08:00:36;11.70;;;5.60;;
69588;SDS011;56792;50.644;17.984;2023-02-28T08:03:12;10.00;;;4.90;;
69588;SDS011;56792;50.644;17.984;2023-02-28T08:05:45;9.50;;;4.70;;
69588;SDS011;56792;50.644;17.984;2023-02-28T08:08:18;13.20;;;6.20;;
69588;SDS011;56792;50.644;17.984;2023-02-28T08:10:50;16.30;;;8.00;;
69588;SDS011;56792;50.644;17.984;2023-02-28T08:13:22;13.70;;;6.80;;
69588;SDS011;56792;50.644;17.984;2023-02-28T08:15:56;15.00;;;7.20;;
69588;SDS011;56792;50.644;17.984;2023-02-28T08:18:28;17.30;;;8.40;;
69588;SDS011;56792;50.644;17.984;2023-02-28T08:21:04;8.50;;;4.70;;
69588;SDS011;56792;50.644;17.984;2023-02-28T08:23:38;8.00;;;4.10;;
69588;SDS011;56792;50.644;17.984;2023-02-28T08:26:10;8.30;;;3.30;;
69588;SDS011;56792;50.644;17.984;2023-02-28T08:28:43;7.40;;;3.10;;
69588;SDS011;56792;50.644;17.984;2023-02-28T08:31:17;5.20;;;3.30;;
69588;SDS011;56792;50.644;17.984;2023-02-28T08:33:51;6.50;;;3.20;;
69588;SDS011;56792;50.644;17.984;2023-02-28T08:36:27;7.70;;;3.80;;
69588;SDS011;56792;50.644;17.984;2023-02-28T08:39:00;7.00;;;3.90;;
69588;SDS011;56792;50.644;17.984;2023-02-28T08:41:33;6.70;;;3.90;;
69588;SDS011;56792;50.644;17.984;2023-02-28T08:44:06;7.50;;;3.50;;
69588;SDS011;56792;50.644;17.984;2023-02-28T08:46:38;8.00;;;3.90;;
69588;SDS011;56792;50.644;17.984;2023-02-28T08:49:11;6.70;;;3.60;;
69588;SDS011;56792;50.644;17.984;2023-02-28T08:51:44;7.20;;;3.70;;
69588;SDS011;56792;50.644;17.984;2023-02-28T08:54:16;5.80;;;3.20;;
69588;SDS011;56792;50.644;17.984;2023-02-28T08:56:48;6.60;;;3.70;;
69588;SDS011;56792;50.644;17.984;2023-02-28T08:59:21;6.60;;;3.70;;
69588;SDS011;56792;50.644;17.984;2023-02-28T09:01:53;6.30;;;3.70;;
69588;SDS011;56792;50.644;17.984;2023-02-28T09:04:25;7.90;;;4.90;;
69588;SDS011;56792;50.644;17.984;2023-02-28T09:06:59;6.40;;;3.40;;
69588;SDS011;56792;50.644;17.984;2023-02-28T09:09:32;6.20;;;3.40;;
69588;SDS011;56792;50.644;17.984;2023-02-28T09:12:05;6.20;;;3.00;;
69588;SDS011;56792;50.644;17.984;2023-02-28T09:14:37;6.40;;;3.30;;
69588;SDS011;56792;50.644;17.984;2023-02-28T09:17:10;7.80;;;5.10;;
69588;SDS011;56792;50.644;17.984;2023-02-28T09:19:42;9.70;;;4.80;;
69588;SDS011;56792;50.644;17.984;2023-02-28T09:22:15;10.50;;;4.20;;
69588;SDS011;56792;50.644;17.984;2023-02-28T09:24:47;8.10;;;4.50;;
69588;SDS011;56792;50.644;17.984;2023-02-28T09:27:21;8.70;;;5.20;;
69588;SDS011;56792;50.644;17.984;2023-02-28T09:29:54;7.80;;;4.70;;
69588;SDS011;56792;50.644;17.984;2023-02-28T09:32:26;11.50;;;6.50;;
69588;SDS011;56792;50.644;17.984;2023-02-28T09:34:58;7.90;;;5.30;;
69588;SDS011;56792;50.644;17.984;2023-02-28T09:37:31;10.90;;;6.10;;
69588;SDS011;56792;50.644;17.984;2023-02-28T09:40:03;10.10;;;6.00;;
69588;SDS011;56792;50.644;17.984;2023-02-28T09:42:38;12.00;;;7.50;;
69588;SDS011;56792;50.644;17.984;2023-02-28T09:45:24;7.80;;;5.80;;
69588;SDS011;56792;50.644;17.984;2023-02-28T09:48:01;8.00;;;6.20;;
69588;SDS011;56792;50.644;17.984;2023-02-28T09:50:42;14.00;;;8.40;;
69588;SDS011;56792;50.644;17.984;2023-02-28T09:53:22;7.30;;;5.30;;
69588;SDS011;56792;50.644;17.984;2023-02-28T09:56:05;8.10;;;5.80;;
69588;SDS011;56792;50.644;17.984;2023-02-28T09:58:44;7.60;;;5.60;;
69588;SDS011;56792;50.644;17.984;2023-02-28T10:01:27;7.30;;;5.70;;
69588;SDS011;56792;50.644;17.984;2023-02-28T10:04:10;6.30;;;5.50;;
69588;SDS011;56792;50.644;17.984;2023-02-28T10:06:56;6.90;;;5.60;;
69588;SDS011;56792;50.644;17.984;2023-02-28T10:09:32;8.30;;;6.40;;
69588;SDS011;56792;50.644;17.984;2023-02-28T10:12:07;8.10;;;6.60;;
69588;SDS011;56792;50.644;17.984;2023-02-28T10:14:46;8.00;;;6.40;;
69588;SDS011;56792;50.644;17.984;2023-02-28T10:17:23;7.70;;;5.70;;
69588;SDS011;56792;50.644;17.984;2023-02-28T10:20:04;7.60;;;6.50;;
69588;SDS011;56792;50.644;17.984;2023-02-28T10:22:51;7.90;;;5.90;;
69588;SDS011;56792;50.644;17.984;2023-02-28T10:25:29;7.70;;;5.90;;
69588;SDS011;56792;50.644;17.984;2023-02-28T10:28:05;8.20;;;6.70;;
69588;SDS011;56792;50.644;17.984;2023-02-28T10:30:44;7.40;;;6.60;;
69588;SDS011;56792;50.644;17.984;2023-02-28T10:33:25;7.70;;;6.40;;
69588;SDS011;56792;50.644;17.984;2023-02-28T10:36:00;7.30;;;6.30;;
69588;SDS011;56792;50.644;17.984;2023-02-28T10:38:37;7.50;;;6.50;;
69588;SDS011;56792;50.644;17.984;2023-02-28T10:41:11;8.30;;;7.40;;
69588;SDS011;56792;50.644;17.984;2023-02-28T10:43:45;11.00;;;8.30;;
69588;SDS011;56792;50.644;17.984;2023-02-28T10:46:21;7.70;;;6.10;;
69588;SDS011;56792;50.644;17.984;2023-02-28T10:49:05;7.40;;;6.70;;
69588;SDS011;56792;50.644;17.984;2023-02-28T10:51:43;8.40;;;7.30;;
69588;SDS011;56792;50.644;17.984;2023-02-28T10:54:30;7.90;;;6.90;;
69588;SDS011;56792;50.644;17.984;2023-02-28T10:57:17;8.10;;;7.00;;
69588;SDS011;56792;50.644;17.984;2023-02-28T11:00:06;7.40;;;6.70;;
69588;SDS011;56792;50.644;17.984;2023-02-28T11:02:46;7.40;;;6.30;;
69588;SDS011;56792;50.644;17.984;2023-02-28T11:05:30;7.40;;;6.70;;
69588;SDS011;56792;50.644;17.984;2023-02-28T11:08:13;8.30;;;7.10;;
69588;SDS011;56792;50.644;17.984;2023-02-28T11:10:48;7.50;;;6.80;;
69588;SDS011;56792;50.644;17.984;2023-02-28T11:13:29;8.00;;;6.70;;
69588;SDS011;56792;50.644;17.984;2023-02-28T11:16:07;7.60;;;6.80;;
69588;SDS011;56792;50.644;17.984;2023-02-28T11:18:46;7.60;;;6.80;;
69588;SDS011;56792;50.644;17.984;2023-02-28T11:21:27;7.50;;;6.70;;
69588;SDS011;56792;50.644;17.984;2023-02-28T11:24:06;7.30;;;6.40;;
69588;SDS011;56792;50.644;17.984;2023-02-28T11:26:50;7.90;;;7.10;;
69588;SDS011;56792;50.644;17.984;2023-02-28T11:29:24;7.20;;;6.40;;
69588;SDS011;56792;50.644;17.984;2023-02-28T11:32:18;7.60;;;6.70;;
69588;SDS011;56792;50.644;17.984;2023-02-28T11:35:04;9.50;;;8.10;;
69588;SDS011;56792;50.644;17.984;2023-02-28T11:37:51;9.10;;;8.20;;
69588;SDS011;56792;50.644;17.984;2023-02-28T11:40:31;8.10;;;7.30;;
69588;SDS011;56792;50.644;17.984;2023-02-28T11:43:29;8.40;;;7.50;;
69588;SDS011;56792;50.644;17.984;2023-02-28T11:46:18;8.30;;;7.30;;
69588;SDS011;56792;50.644;17.984;2023-02-28T11:49:06;8.10;;;6.70;;
69588;SDS011;56792;50.644;17.984;2023-02-28T11:51:56;8.90;;;6.70;;
69588;SDS011;56792;50.644;17.984;2023-02-28T11:55:03;8.80;;;7.20;;
69588;SDS011;56792;50.644;17.984;2023-02-28T11:58:03;8.80;;;7.20;;
69588;SDS011;56792;50.644;17.984;2023-02-28T12:01:07;8.60;;;7.70;;
69588;SDS011;56792;50.644;17.984;2023-02-28T12:04:01;8.20;;;7.00;;
69588;SDS011;56792;50.644;17.984;2023-02-28T12:06:48;8.00;;;6.80;;
69588;SDS011;56792;50.644;17.984;2023-02-28T12:09:43;7.60;;;6.80;;
69588;SDS011;56792;50.644;17.984;2023-02-28T12:12:29;8.00;;;7.00;;
69588;SDS011;56792;50.644;17.984;2023-02-28T12:15:27;7.80;;;6.80;;
69588;SDS011;56792;50.644;17.984;2023-02-28T12:18:17;8.20;;;7.00;;
69588;SDS011;56792;50.644;17.984;2023-02-28T12:21:04;9.10;;;7.50;;
69588;SDS011;56792;50.644;17.984;2023-02-28T12:24:00;8.70;;;6.50;;
69588;SDS011;56792;50.644;17.984;2023-02-28T12:26:45;9.20;;;6.50;;
69588;SDS011;56792;50.644;17.984;2023-02-28T12:29:23;10.10;;;6.50;;
69588;SDS011;56792;50.644;17.984;2023-02-28T12:32:01;8.30;;;6.60;;
69588;SDS011;56792;50.644;17.984;2023-02-28T12:34:42;9.10;;;6.80;;
69588;SDS011;56792;50.644;17.984;2023-02-28T12:37:24;9.00;;;6.60;;
69588;SDS011;56792;50.644;17.984;2023-02-28T12:40:03;10.00;;;6.50;;
69588;SDS011;56792;50.644;17.984;2023-02-28T12:42:44;8.00;;;5.70;;
69588;SDS011;56792;50.644;17.984;2023-02-28T12:45:21;8.10;;;5.70;;
69588;SDS011;56792;50.644;17.984;2023-02-28T12:48:00;7.90;;;5.70;;
69588;SDS011;56792;50.644;17.984;2023-02-28T12:50:36;9.20;;;6.50;;
69588;SDS011;56792;50.644;17.984;2023-02-28T12:53:13;9.50;;;7.10;;
69588;SDS011;56792;50.644;17.984;2023-02-28T12:55:54;8.20;;;6.20;;
69588;SDS011;56792;50.644;17.984;2023-02-28T12:58:37;9.30;;;6.40;;
69588;SDS011;56792;50.644;17.984;2023-02-28T13:01:36;8.00;;;6.00;;
69588;SDS011;56792;50.644;17.984;2023-02-28T13:04:57;8.60;;;6.20;;
69588;SDS011;56792;50.644;17.984;2023-02-28T13:08:01;8.70;;;6.50;;
69588;SDS011;56792;50.644;17.984;2023-02-28T13:10:45;7.80;;;5.90;;
69588;SDS011;56792;50.644;17.984;2023-02-28T13:13:25;8.10;;;5.80;;
69588;SDS011;56792;50.644;17.984;2023-02-28T13:16:07;7.50;;;5.50;;
69588;SDS011;56792;50.644;17.984;2023-02-28T13:18:42;7.80;;;6.00;;
69588;SDS011;56792;50.644;17.984;2023-02-28T13:21:26;8.50;;;6.00;;
69588;SDS011;56792;50.644;17.984;2023-02-28T13:24:05;10.40;;;7.30;;
69588;SDS011;56792;50.644;17.984;2023-02-28T13:27:19;10.00;;;7.40;;
69588;SDS011;56792;50.644;17.984;2023-02-28T13:31:03;8.10;;;5.80;;
69588;SDS011;56792;50.644;17.984;2023-02-28T13:33:26;9.40;;;8.20;;
69588;SDS011;56792;50.644;17.984;2023-02-28T13:36:24;8.90;;;6.70;;
69588;SDS011;56792;50.644;17.984;2023-02-28T13:39:00;8.80;;;6.60;;
69588;SDS011;56792;50.644;17.984;2023-02-28T13:41:54;12.80;;;8.40;;
69588;SDS011;56792;50.644;17.984;2023-02-28T13:44:27;28.40;;;14.20;;
69588;SDS011;56792;50.644;17.984;2023-02-28T13:47:29;15.00;;;8.50;;
69588;SDS011;56792;50.644;17.984;2023-02-28T13:50:35;9.00;;;6.40;;
69588;SDS011;56792;50.644;17.984;2023-02-28T13:56:39;10.90;;;7.80;;
69588;SDS011;56792;50.644;17.984;2023-02-28T13:59:25;10.80;;;7.90;;
69588;SDS011;56792;50.644;17.984;2023-02-28T14:02:17;8.50;;;6.50;;
69588;SDS011;56792;50.644;17.984;2023-02-28T14:05:15;8.70;;;6.60;;
69588;SDS011;56792;50.644;17.984;2023-02-28T14:07:51;7.30;;;6.40;;
69588;SDS011;56792;50.644;17.984;2023-02-28T14:10:28;8.10;;;6.40;;
69588;SDS011;56792;50.644;17.984;2023-02-28T14:13:11;9.00;;;6.30;;
69588;SDS011;56792;50.644;17.984;2023-02-28T14:16:07;9.80;;;7.90;;
69588;SDS011;56792;50.644;17.984;2023-02-28T14:18:43;10.10;;;7.40;;
69588;SDS011;56792;50.644;17.984;2023-02-28T14:21:27;9.10;;;6.70;;
69588;SDS011;56792;50.644;17.984;2023-02-28T14:24:19;9.50;;;7.00;;
69588;SDS011;56792;50.644;17.984;2023-02-28T14:30:52;7.90;;;6.10;;
69588;SDS011;56792;50.644;17.984;2023-02-28T14:33:48;9.10;;;6.20;;
69588;SDS011;56792;50.644;17.984;2023-02-28T14:36:45;12.30;;;7.50;;
69588;SDS011;56792;50.644;17.984;2023-02-28T14:39:22;8.70;;;6.90;;
69588;SDS011;56792;50.644;17.984;2023-02-28T14:41:57;9.40;;;6.70;;
69588;SDS011;56792;50.644;17.984;2023-02-28T14:44:33;10.30;;;6.90;;
69588;SDS011;56792;50.644;17.984;2023-02-28T14:47:16;10.20;;;6.40;;
69588;SDS011;56792;50.644;17.984;2023-02-28T14:49:49;10.40;;;7.20;;
69588;SDS011;56792;50.644;17.984;2023-02-28T14:52:26;9.80;;;6.80;;
69588;SDS011;56792;50.644;17.984;2023-02-28T14:55:03;9.00;;;6.10;;
69588;SDS011;56792;50.644;17.984;2023-02-28T14:57:50;8.50;;;5.30;;
69588;SDS011;56792;50.644;17.984;2023-02-28T15:00:27;8.10;;;6.10;;
69588;SDS011;56792;50.644;17.984;2023-02-28T15:03:19;10.60;;;7.30;;
69588;SDS011;56792;50.644;17.984;2023-02-28T15:05:57;8.10;;;5.90;;
69588;SDS011;56792;50.644;17.984;2023-02-28T15:08:32;7.40;;;5.40;;
69588;SDS011;56792;50.644;17.984;2023-02-28T15:11:07;8.80;;;5.80;;
69588;SDS011;56792;50.644;17.984;2023-02-28T15:13:44;8.30;;;5.30;;
69588;SDS011;56792;50.644;17.984;2023-02-28T15:16:22;8.70;;;5.90;;
69588;SDS011;56792;50.644;17.984;2023-02-28T15:18:57;9.60;;;6.20;;
69588;SDS011;56792;50.644;17.984;2023-02-28T15:21:34;8.30;;;5.70;;
69588;SDS011;56792;50.644;17.984;2023-02-28T15:24:13;8.40;;;5.30;;
69588;SDS011;56792;50.644;17.984;2023-02-28T15:26:57;11.50;;;7.00;;
69588;SDS011;56792;50.644;17.984;2023-02-28T15:29:41;15.90;;;9.70;;
69588;SDS011;56792;50.644;17.984;2023-02-28T15:32:30;13.40;;;7.00;;
69588;SDS011;56792;50.644;17.984;2023-02-28T15:35:27;11.40;;;6.20;;
69588;SDS011;56792;50.644;17.984;2023-02-28T15:38:11;10.30;;;6.60;;
69588;SDS011;56792;50.644;17.984;2023-02-28T15:40:52;26.20;;;11.20;;
69588;SDS011;56792;50.644;17.984;2023-02-28T15:43:28;28.00;;;12.20;;